createdAt,value
2022-12-08T05:07:01.028Z,14.75
2022-12-08T05:10:04.237Z,14.45
2022-12-08T05:13:06.633Z,15.35
2022-12-08T05:16:11.882Z,15.57
2022-12-08T05:19:14.714Z,15.50
2022-12-08T05:22:17.031Z,14.95
2022-12-08T05:25:19.108Z,14.00
2022-12-08T05:28:43.914Z,15.55
2022-12-08T05:31:43.831Z,14.00
2022-12-08T05:34:46.245Z,15.32
2022-12-08T05:37:48.291Z,15.15
2022-12-08T05:40:50.596Z,15.27
2022-12-08T05:43:52.863Z,15.90
2022-12-08T05:46:55.219Z,15.40
2022-12-08T05:49:57.300Z,15.00
2022-12-08T05:52:59.649Z,15.23
2022-12-08T05:56:01.801Z,15.27
2022-12-08T05:59:07.675Z,15.02
2022-12-08T06:02:09.854Z,15.85
2022-12-08T06:05:12.389Z,16.80
2022-12-08T06:08:16.030Z,16.95
2022-12-08T06:11:30.062Z,16.52
2022-12-08T06:14:32.132Z,16.52
2022-12-08T06:17:34.687Z,16.90
2022-12-08T06:20:36.804Z,17.37
2022-12-08T06:23:39.583Z,18.23
2022-12-08T06:26:41.735Z,17.40
2022-12-08T06:29:44.340Z,17.42
2022-12-08T06:32:46.396Z,18.98
2022-12-08T06:35:48.757Z,19.67
2022-12-08T06:38:51.245Z,20.77
2022-12-08T06:42:12.278Z,20.60
2022-12-08T06:45:16.449Z,21.85
2022-12-08T06:48:19.817Z,22.27
2022-12-08T06:51:23.502Z,23.23
2022-12-08T06:54:27.571Z,25.95
2022-12-08T06:57:29.741Z,22.50
2022-12-08T07:00:32.093Z,24.00
2022-12-08T07:03:34.683Z,25.40
2022-12-08T07:06:37.940Z,24.67
2022-12-08T07:09:40.468Z,24.52
2022-12-08T07:12:42.810Z,24.33
2022-12-08T07:15:44.852Z,25.33
2022-12-08T07:18:47.181Z,25.37
2022-12-08T07:21:49.220Z,24.05
2022-12-08T07:24:51.524Z,24.25
2022-12-08T07:27:53.626Z,24.75
2022-12-08T07:30:56.312Z,26.08
2022-12-08T07:33:58.553Z,26.67
2022-12-08T07:37:02.076Z,25.67
2022-12-08T07:40:08.506Z,27.45
2022-12-08T07:43:11.026Z,26.50
2022-12-08T07:46:15.918Z,25.17
2022-12-08T07:49:18.370Z,26.30
2022-12-08T07:52:20.498Z,26.73
2022-12-08T07:55:25.306Z,26.35
2022-12-08T07:58:27.684Z,27.52
2022-12-08T08:01:33.228Z,27.98
2022-12-08T08:04:35.642Z,28.92
2022-12-08T08:07:38.594Z,30.35
2022-12-08T08:10:40.981Z,29.40
2022-12-08T08:13:43.068Z,29.12
2022-12-08T08:16:47.372Z,28.92
2022-12-08T08:19:49.569Z,28.62
2022-12-08T08:22:52.414Z,28.70
2022-12-08T08:25:54.732Z,28.30
2022-12-08T08:28:57.057Z,28.98
2022-12-08T08:31:59.894Z,27.33
2022-12-08T08:35:03.608Z,26.30
2022-12-08T08:38:05.874Z,27.98
2022-12-08T08:41:11.173Z,26.62
2022-12-08T08:44:14.964Z,27.42
2022-12-08T08:47:17.555Z,26.90
2022-12-08T08:50:19.670Z,22.85
2022-12-08T08:53:22.781Z,23.48
2022-12-08T08:56:25.022Z,20.98
2022-12-08T08:59:28.377Z,21.40
2022-12-08T09:02:30.460Z,23.17
2022-12-08T09:05:32.823Z,21.95
2022-12-08T09:08:34.856Z,23.60
2022-12-08T09:11:37.585Z,22.85
2022-12-08T09:14:40.148Z,22.15
2022-12-08T09:17:42.723Z,23.25
2022-12-08T09:20:44.788Z,24.60
2022-12-08T09:23:47.095Z,23.40
2022-12-08T09:26:49.360Z,26.15
2022-12-08T09:29:51.716Z,24.60
2022-12-08T09:32:53.969Z,24.90
2022-12-08T09:35:56.875Z,24.30
2022-12-08T09:38:59.063Z,25.33
2022-12-08T09:42:05.031Z,23.25
2022-12-08T09:45:18.597Z,23.47
2022-12-08T09:48:33.833Z,21.25
2022-12-08T09:51:40.409Z,22.50
2022-12-08T09:54:42.738Z,20.77
2022-12-08T09:57:46.327Z,20.85
2022-12-08T10:00:50.013Z,20.92
2022-12-08T10:03:52.424Z,19.83
2022-12-08T10:06:59.917Z,18.60
2022-12-08T10:10:37.894Z,17.80
2022-12-08T10:13:52.589Z,17.95
2022-12-08T10:17:04.660Z,17.70
2022-12-08T10:20:15.800Z,17.00
2022-12-08T10:23:34.479Z,17.42
2022-12-08T10:26:36.508Z,17.05
2022-12-08T10:29:40.404Z,16.55
2022-12-08T10:32:45.788Z,16.75
2022-12-08T10:35:54.396Z,15.55
2022-12-08T10:38:56.467Z,15.05
2022-12-08T10:42:08.879Z,16.27
2022-12-08T10:45:27.907Z,16.65
2022-12-08T10:48:33.795Z,16.58
2022-12-08T10:51:41.554Z,17.03
2022-12-08T10:54:43.935Z,17.00
2022-12-08T10:57:48.910Z,16.60
2022-12-08T11:00:55.470Z,16.98
2022-12-08T11:04:03.999Z,16.15
2022-12-08T11:07:09.097Z,14.73
2022-12-08T11:10:18.758Z,12.88
2022-12-08T11:13:27.181Z,13.10
2022-12-08T11:16:29.631Z,12.37
2022-12-08T11:19:37.859Z,12.13
2022-12-08T11:22:41.100Z,14.10
2022-12-08T11:25:43.866Z,14.52
2022-12-08T11:28:46.107Z,14.60
2022-12-08T11:31:54.731Z,15.02
2022-12-08T11:35:03.647Z,15.57
2022-12-08T11:38:21.622Z,15.57
2022-12-08T11:41:31.345Z,14.73
2022-12-08T11:44:42.198Z,15.57
2022-12-08T11:47:55.485Z,16.17
2022-12-08T11:51:08.411Z,16.25
2022-12-08T11:54:26.482Z,15.75
2022-12-08T11:57:29.781Z,15.52
2022-12-08T12:00:32.224Z,14.95
2022-12-08T12:03:44.120Z,16.62
2022-12-08T12:07:25.839Z,14.68
2022-12-08T12:10:35.779Z,15.63
2022-12-08T12:14:09.377Z,14.80
2022-12-08T12:17:44.128Z,16.25
2022-12-08T12:20:59.377Z,13.82
2022-12-08T12:24:35.742Z,15.60
2022-12-08T12:27:40.255Z,14.80
2022-12-08T12:31:11.547Z,15.00
2022-12-08T12:34:36.331Z,15.52
2022-12-08T12:37:42.734Z,14.82
2022-12-08T12:40:45.077Z,15.18
2022-12-08T12:44:22.623Z,14.80
2022-12-08T12:47:55.841Z,16.92
2022-12-08T12:50:58.860Z,15.25
2022-12-08T12:54:24.329Z,14.95
2022-12-08T12:57:37.587Z,16.23
2022-12-08T13:00:40.101Z,16.65
2022-12-08T13:04:02.458Z,15.00
2022-12-08T13:07:05.394Z,16.92
2022-12-08T13:10:29.155Z,16.17
2022-12-08T13:13:32.110Z,16.50
2022-12-08T13:16:38.490Z,15.95
2022-12-08T13:19:41.877Z,14.65
2022-12-08T13:23:03.248Z,15.13
2022-12-08T13:26:16.367Z,14.82
2022-12-08T13:29:26.152Z,14.73
2022-12-08T13:32:28.173Z,13.93
2022-12-08T13:35:30.865Z,14.27
2022-12-08T13:38:37.202Z,14.57
2022-12-08T13:41:47.717Z,12.77
2022-12-08T13:45:21.371Z,13.88
2022-12-08T13:49:03.333Z,13.35
2022-12-08T13:53:35.049Z,12.63
2022-12-08T13:58:44.497Z,13.52
2022-12-08T14:01:51.140Z,14.20
2022-12-08T14:08:57.922Z,14.87
2022-12-08T14:11:55.841Z,14.30
2022-12-08T14:15:15.499Z,13.75
2022-12-08T14:18:26.737Z,13.43
2022-12-08T14:21:34.427Z,13.60
2022-12-08T14:24:38.640Z,13.48
2022-12-08T14:27:41.000Z,13.55
2022-12-08T14:30:43.945Z,13.93
2022-12-08T14:33:49.380Z,13.43
2022-12-08T14:36:55.906Z,14.98
2022-12-08T14:40:03.330Z,13.77
2022-12-08T14:43:14.911Z,14.70
2022-12-08T14:46:22.897Z,14.55
2022-12-08T14:49:37.103Z,15.20
2022-12-08T14:52:44.343Z,13.93
2022-12-08T14:55:48.497Z,14.50
2022-12-08T14:59:06.244Z,13.55
2022-12-08T15:02:25.541Z,13.65
2022-12-08T15:05:31.404Z,13.55
2022-12-08T15:08:35.281Z,15.55
2022-12-08T15:11:37.307Z,14.95
2022-12-08T15:14:56.380Z,14.40
2022-12-08T15:18:12.136Z,15.48
2022-12-08T15:21:14.554Z,15.88
2022-12-08T15:24:18.493Z,15.82
2022-12-08T15:27:22.986Z,15.30
2022-12-08T15:30:28.615Z,14.75
2022-12-08T15:33:30.940Z,14.73
2022-12-08T15:36:33.048Z,16.12
2022-12-08T15:39:37.693Z,15.85
2022-12-08T15:42:39.711Z,16.62
2022-12-08T15:45:49.345Z,14.80
2022-12-08T15:48:58.326Z,15.27
2022-12-08T15:52:11.258Z,16.02
2022-12-08T15:55:15.247Z,15.32
2022-12-08T16:01:46.595Z,16.05
2022-12-08T16:08:44.573Z,16.80
2022-12-08T16:12:06.533Z,16.95
2022-12-08T16:18:36.579Z,17.02
2022-12-08T16:25:14.709Z,17.95
2022-12-08T16:31:42.395Z,15.40
2022-12-08T16:34:44.482Z,16.33
2022-12-08T16:37:46.834Z,14.13
2022-12-08T16:41:07.551Z,13.70
2022-12-08T16:44:09.855Z,13.40
2022-12-08T16:47:11.933Z,14.35
2022-12-08T16:50:28.803Z,14.85
2022-12-08T16:53:30.848Z,13.88
